x

Boston 16 Nm East Of Boston, Ma (44013) Wave Buoy

12:50 - Wed 1st Apr 2015 All times are EDT. -4 hours from GMT.

  • Sig Wave height 1.0ft
  • Swell Direction
  • Peak Period 8s
  • Average Period 4s
  • Wind
    11mph
  • Sea Temp 37°f
  • Ar Temp 38°f
  • Sea Pressure 1008.3mb
  • Boston 16 Nm East Of Boston, Ma
  • Boston 16 Nm East Of Boston, Ma

More Historic Weather Station data

Upgrade to MSW Pro to gain access to the past 30 days of data for over 8000 Wavebouys and Weather Stations around the globe.

Join Pro

Comparision Forecast

View Surf forecast
   
Qua 04/01 12:50 1ft 8s 4s 11
mph
1008.3mb 37f 38f
Ter 03/31 11:50 1ft 9s 5s 11
mph
1008.3mb 37f 38f
10:50 1ft 8s 6s 13 16 mph 1007.6mb 37f 39f
9:50 1ft 9s 5s 2 4 mph 1007.6mb 37f 40f
8:50 1ft 9s 4s 4
mph
1007.5mb 37f 40f
7:50 1ft 9s 4s 4 7 mph 1006.9mb 37f 41f
6:50 1.3ft 10s 4s 7 9 mph 1006.4mb 37f 41f
5:50 1.3ft 9s 4s 11
mph
1006.3mb 37f 41f
4:50 1.3ft 9s 4s 11 13 mph 1005.9mb 37f 41f
3:50 1ft 10s 4s 11 13 mph 1005.4mb 37f 41f
2:50 1ft 8s 4s 9 11 mph 1005.8mb 37f 42f
1:50 1ft 10s 4s 9 11 mph 1006.3mb 37f 40f
12:50 1.3ft 9s 3s 9 11 mph 1006.7mb 37f 39f
11:50 1.3ft 9s 3s 11 13 mph 1007.1mb 37f 39f
10:50 1.3ft 9s 4s 11 13 mph 1007.8mb 36f 38f
9:50 1.3ft 9s 4s 11 13 mph 1007.9mb 36f 38f
8:50 1.3ft 9s 4s 11 13 mph 1007.7mb 36f 38f
7:50 1.6ft 3s 3s 13 16 mph 1007.4mb 36f 38f
6:50 2ft 3s 4s 18 22 mph 1006.6mb 36f 38f
5:50 2ft 3s 4s 16 18 mph 1005.8mb 36f 37f
4:50 2ft 8s 4s 18 20 mph 1005.4mb 36f 37f
3:50 2ft 3s 4s 18 22 mph 1005.1mb 36f 37f
2:50 2ft 10s 4s 18 20 mph 1005.5mb 36f 38f
1:50 2ft 8s 4s 16 18 mph 1006mb 36f 38f
12:50 2ft 3s 4s 16 18 mph 1006.3mb 36f 38f
Seg 03/30 11:50 1.6ft 8s 4s 13 16 mph 1006.8mb 36f 39f
10:50 1.3ft 8s 5s 16 18 mph 1007mb 36f 39f
9:50 1.6ft 11s 5s 13 16 mph 1007mb 36f 39f
8:50 1.6ft 10s 5s 9 11 mph 1007mb 36f 40f
7:50 2ft 10s 5s 9
mph
1006.6mb 36f 40f
6:50 2ft 10s 5s 9 11 mph 1006.6mb 36f 40f
5:50 2.5ft 10s 4s 9 11 mph 1006.5mb 36f 39f
4:50 2.5ft 11s 5s 7 9 mph 1006.6mb 36f 40f
3:50 2.5ft 10s 4s 11 13 mph 1006.8mb 36f 38f
2:50 3ft 4s 4s 13 18 mph 1007.3mb 36f 38f
1:50 3ft 9s 4s 22 29 mph 1007.5mb 36f 38f
12:50 3.5ft 4s 4s 18 22 mph 1009.1mb 36f 38f
11:50 3ft 4s 4s 16 20 mph 1010mb 36f 37f
10:50 3ft 11s 4s 20 25 mph 1011.1mb 36f 35f
9:50 3ft 11s 4s 27 34 mph 1011.7mb 36f 36f
8:50 3ft 10s 4s 20 25 mph 1012mb 36f 36f
7:50 3ft 10s 4s 18 20 mph 1013.4mb 36f 35f
6:50 3ft 9s 5s 18 20 mph 1014.2mb 36f 34f
5:50 3ft 9s 4s 20 22 mph 1015.1mb 36f 33f
4:50 3.5ft 9s 5s 20 25 mph 1015.6mb 36f 33f
3:50 3.5ft 11s 5s 20 22 mph 1016.6mb 36f 33f
2:50 3.5ft 9s 5s 18 20 mph 1017.2mb 36f 33f
1:50 3.5ft 10s 5s 16 20 mph 1017.8mb 36f 33f
12:50 3.5ft 10s 5s 18 20 mph 1018.7mb 36f 33f
Dom 03/29 11:50 3.5ft 10s 5s 16 18 mph 1018.6mb 36f 33f
10:50 4.5ft 10s 6s 18 20 mph 1019.2mb 36f 33f
9:50 4.5ft 10s 6s 16 18 mph 1019.9mb 36f 34f
8:50 4.5ft 10s 6s 18 22 mph 1019.8mb 36f 35f
7:50 5ft 10s 6s 18 20 mph 1020mb 36f 34f
6:50 4.5ft 10s 7s 16 18 mph 1019.7mb 37f 34f
5:50 4.5ft 11s 7s 13 16 mph 1019.8mb 37f 34f
4:50 5ft 11s 7s 11 13 mph 1020.1mb 37f 34f
3:50 5ft 10s 7s 9 11 mph 1020.7mb 37f 33f
2:50 4.5ft 9s 7s 9 11 mph 1021.5mb 38f 32f
1:50 5ft 9s 7s 4 7 mph 1022.3mb 37f 31f
12:50 5.5ft 9s 7s 2 4 mph 1022.7mb 37f 30f
11:50 5ft 11s 7s 4 7 mph 1023mb 36f 30f
10:50 6ft 9s 7s 9 13 mph 1023.1mb 36f 30f
9:50 5.5ft 10s 6s 11 16 mph 1023mb 36f 29f
8:50 6ft 10s 6s 16 18 mph 1022.2mb 36f 29f
7:50 6ft 8s 6s 16 18 mph 1021.4mb 36f 28f
6:50 5.5ft 8s 6s 16 20 mph 1020.3mb 36f 28f
5:50 5ft 8s 5s 16 20 mph 1019.3mb 36f 28f
4:50 5ft 8s 6s 18 20 mph 1018.7mb 36f 28f
3:50 5.5ft 8s 6s 20 22 mph 1017.9mb 36f 28f
2:50 6ft 8s 6s 20 25 mph 1017.5mb 36f 29f
1:50 6.5ft 8s 6s 18 22 mph 1017.2mb 36f 30f
12:50 6ft 8s 6s 22 25 mph 1016.4mb 36f 32f
Sáb 03/28 11:50 6ft 8s 6s 18 22 mph 1016.1mb 36f 33f
10:50 7ft 8s 7s 11 16 mph 1015.4mb 36f 34f
9:50 6.5ft 8s 6s 7 9 mph 1014.8mb 36f 33f
8:50 7ft 8s 6s 4 7 mph 1013.9mb 36f 33f
7:50 7ft 8s 6s 9 11 mph 1012.5mb 36f 34f
6:50 7.5ft 8s 6s 16 20 mph 1010.9mb 36f 33f
5:50 7.5ft 7s 6s 25 29 mph 1009.3mb 36f 33f
4:50 7ft 7s 5s 27 34 mph 1008mb 36f 32f
3:50 7ft 7s 5s 27 31 mph 1007.2mb 36f 32f
2:50 6.5ft 7s 5s 25 29 mph 1007mb 36f 32f
1:50 7ft 7s 5s 27 31 mph 1007mb 36f 32f
12:50 7ft 6s 5s 25 29 mph 1007mb 36f 32f
11:50 7ft 6s 5s 25 31 mph 1007.2mb 36f 33f
10:50 6ft 6s 5s 27 31 mph 1007.1mb 36f 34f
9:50 5.5ft 12s 5s 25 29 mph 1006mb 36f 35f
8:50 4.5ft 11s 5s 20 25 mph 1006.6mb 36f 35f
7:50 4ft 11s 5s 20 25 mph 1006.4mb 37f 36f
6:50 3.5ft 11s 6s 16 18 mph 1006.1mb 37f 37f